createdAt,value
2018-09-04T00:00:03.266Z,16.30
2018-09-04T00:02:32.348Z,16.30
2018-09-04T00:05:01.514Z,16.30
2018-09-04T00:07:30.674Z,16.30
2018-09-04T00:09:59.758Z,16.30
2018-09-04T00:12:28.846Z,16.30
2018-09-04T00:14:57.897Z,16.20
2018-09-04T00:17:27.172Z,16.10
2018-09-04T00:19:56.249Z,16.20
2018-09-04T00:22:25.386Z,16.30
2018-09-04T00:24:54.570Z,16.20
2018-09-04T00:27:23.644Z,16.20
2018-09-04T00:29:52.792Z,16.20
2018-09-04T00:32:21.904Z,16.20
2018-09-04T00:34:50.995Z,16.20
2018-09-04T00:37:20.174Z,16.20
2018-09-04T00:39:50.225Z,16.20
2018-09-04T00:42:19.341Z,16.20
2018-09-04T00:44:48.416Z,16.30
2018-09-04T00:47:17.526Z,16.30
2018-09-04T00:49:46.614Z,16.30
2018-09-04T00:52:15.692Z,16.30
2018-09-04T00:54:44.798Z,16.30
2018-09-04T00:57:13.932Z,16.20
2018-09-04T00:59:43.040Z,16.10
2018-09-04T01:02:12.140Z,16.10
2018-09-04T01:04:41.299Z,16.10
2018-09-04T01:07:10.439Z,16.10
2018-09-04T01:09:39.590Z,16.10
2018-09-04T01:12:08.682Z,16.00
2018-09-04T01:14:38.328Z,16.00
2018-09-04T01:17:07.472Z,16.00
2018-09-04T01:19:37.198Z,16.00
2018-09-04T01:22:06.526Z,16.00
2018-09-04T01:24:35.628Z,16.10
2018-09-04T01:27:04.820Z,16.00
2018-09-04T01:29:33.982Z,16.10
2018-09-04T01:32:03.052Z,15.90
2018-09-04T01:34:32.672Z,15.90
2018-09-04T01:37:01.778Z,15.90
2018-09-04T01:39:30.864Z,15.90
2018-09-04T01:42:00.124Z,15.90
2018-09-04T01:44:29.212Z,15.90
2018-09-04T01:46:58.318Z,15.80
2018-09-04T01:49:27.469Z,15.90
2018-09-04T01:51:56.574Z,15.90
2018-09-04T01:54:25.688Z,15.80
2018-09-04T01:56:54.804Z,15.80
2018-09-04T01:59:23.884Z,15.80
2018-09-04T02:01:53.042Z,15.80
2018-09-04T02:04:22.140Z,15.70
2018-09-04T02:06:51.264Z,15.80
2018-09-04T02:09:20.421Z,15.80
2018-09-04T02:11:49.496Z,15.80
2018-09-04T02:14:18.561Z,15.80
2018-09-04T02:16:47.645Z,15.70
2018-09-04T02:19:16.734Z,15.70
2018-09-04T02:21:45.805Z,15.80
2018-09-04T02:24:14.836Z,15.70
2018-09-04T02:26:43.941Z,15.70
2018-09-04T02:29:13.026Z,15.70
2018-09-04T02:31:42.113Z,15.70
2018-09-04T02:34:11.203Z,15.80
2018-09-04T02:36:40.463Z,15.70
2018-09-04T02:39:11.044Z,15.70
2018-09-04T02:41:41.260Z,15.60
2018-09-04T02:44:10.369Z,15.50
2018-09-04T02:46:39.477Z,15.50
2018-09-04T02:49:08.982Z,15.50
2018-09-04T02:51:38.074Z,15.50
2018-09-04T02:54:07.270Z,15.50
2018-09-04T02:56:36.414Z,15.50
2018-09-04T02:59:05.562Z,15.40
2018-09-04T03:01:34.739Z,15.40
2018-09-04T03:04:03.846Z,15.40
2018-09-04T03:06:32.922Z,15.50
2018-09-04T03:09:02.002Z,15.50
2018-09-04T03:11:31.119Z,15.50
2018-09-04T03:14:00.275Z,15.50
2018-09-04T03:16:29.249Z,15.50
2018-09-04T03:18:58.347Z,15.50
2018-09-04T03:21:27.436Z,15.50
2018-09-04T03:23:56.539Z,15.40
2018-09-04T03:26:25.630Z,15.40
2018-09-04T03:28:54.730Z,15.40
2018-09-04T03:31:23.876Z,15.30
2018-09-04T03:33:53.020Z,15.20
2018-09-04T03:36:22.150Z,15.20
2018-09-04T03:38:51.340Z,15.00
2018-09-04T03:41:20.464Z,14.90
2018-09-04T03:43:49.529Z,14.90
2018-09-04T03:46:18.644Z,15.00
2018-09-04T03:48:47.765Z,15.00
2018-09-04T03:51:16.850Z,15.00
2018-09-04T03:53:45.997Z,15.10
2018-09-04T03:56:15.097Z,15.00
2018-09-04T03:58:44.190Z,15.00
2018-09-04T04:01:13.314Z,15.10
2018-09-04T04:03:42.339Z,15.10
2018-09-04T04:06:11.426Z,15.00
2018-09-04T04:08:40.516Z,15.10
2018-09-04T04:11:09.614Z,15.20
2018-09-04T04:13:38.694Z,15.10
2018-09-04T04:16:07.789Z,15.10
2018-09-04T04:18:36.898Z,15.20
2018-09-04T04:21:06.017Z,15.10
2018-09-04T04:23:35.137Z,15.10
2018-09-04T04:26:04.329Z,15.00
2018-09-04T04:28:33.436Z,15.00
2018-09-04T04:31:02.561Z,15.00
2018-09-04T04:33:31.666Z,15.00
2018-09-04T04:36:01.319Z,15.10
2018-09-04T04:38:30.439Z,15.10
2018-09-04T04:40:59.779Z,15.10
2018-09-04T04:43:28.856Z,15.10
2018-09-04T04:45:57.969Z,15.00
2018-09-04T04:48:27.083Z,15.10
2018-09-04T04:50:56.275Z,15.10
2018-09-04T04:53:25.366Z,15.10
2018-09-04T04:55:54.483Z,15.00
2018-09-04T04:58:23.620Z,15.00
2018-09-04T05:00:52.714Z,15.00
2018-09-04T05:03:21.830Z,14.90
2018-09-04T05:05:50.936Z,14.90
2018-09-04T05:08:20.033Z,14.90
2018-09-04T05:10:49.198Z,14.80
2018-09-04T05:13:18.362Z,14.90
2018-09-04T05:15:47.453Z,14.90
2018-09-04T05:18:16.578Z,14.80
2018-09-04T05:20:45.719Z,14.80
2018-09-04T05:23:14.824Z,14.70
2018-09-04T05:25:43.934Z,14.70
2018-09-04T05:28:13.018Z,14.70
2018-09-04T05:30:42.145Z,14.70
2018-09-04T05:33:15.557Z,14.70
2018-09-04T05:35:48.883Z,14.80
2018-09-04T05:38:17.991Z,14.80
2018-09-04T05:40:47.108Z,14.90
2018-09-04T05:43:20.640Z,14.90
2018-09-04T05:45:49.830Z,14.90
2018-09-04T05:48:19.030Z,14.90
2018-09-04T05:50:48.186Z,15.00
2018-09-04T05:53:17.412Z,14.90
2018-09-04T05:55:46.657Z,15.00
2018-09-04T05:58:15.760Z,15.00
2018-09-04T06:00:55.108Z,15.00
2018-09-04T06:03:24.482Z,15.00
2018-09-04T06:05:53.672Z,15.10
2018-09-04T06:08:22.780Z,15.10
2018-09-04T06:10:52.044Z,15.10
2018-09-04T06:13:21.150Z,15.10
2018-09-04T06:15:50.268Z,15.20
2018-09-04T06:18:19.476Z,15.10
2018-09-04T06:20:48.572Z,15.20
2018-09-04T06:23:17.820Z,15.30
2018-09-04T06:25:46.931Z,15.30
2018-09-04T06:28:16.074Z,15.40
2018-09-04T06:30:45.225Z,15.40
2018-09-04T06:33:14.355Z,15.40
2018-09-04T06:35:43.527Z,15.40
2018-09-04T06:38:12.603Z,15.50
2018-09-04T06:40:41.717Z,15.50
2018-09-04T06:43:10.837Z,15.50
2018-09-04T06:45:40.155Z,15.50
2018-09-04T06:48:09.268Z,15.70
2018-09-04T06:50:38.370Z,15.60
2018-09-04T06:53:07.485Z,15.60
2018-09-04T06:55:36.595Z,15.70
2018-09-04T06:58:05.737Z,15.60
2018-09-04T07:00:34.807Z,15.70
2018-09-04T07:03:03.911Z,15.80
2018-09-04T07:05:33.051Z,15.80
2018-09-04T07:08:02.163Z,15.90
2018-09-04T07:10:31.269Z,15.90
2018-09-04T07:13:00.344Z,16.10
2018-09-04T07:15:29.442Z,16.00
2018-09-04T07:17:58.599Z,16.10
2018-09-04T07:20:27.751Z,16.10
2018-09-04T07:22:56.881Z,16.20
2018-09-04T07:25:26.057Z,16.30
2018-09-04T07:27:55.175Z,16.40
2018-09-04T07:30:24.273Z,16.40
2018-09-04T07:32:53.361Z,16.50
2018-09-04T07:35:22.509Z,16.40
2018-09-04T07:37:51.746Z,16.60
2018-09-04T07:40:20.833Z,16.60
2018-09-04T07:42:50.631Z,16.70
2018-09-04T07:45:19.769Z,16.80
2018-09-04T07:47:49.055Z,16.80
2018-09-04T07:50:18.131Z,16.90
2018-09-04T07:52:47.234Z,16.90
2018-09-04T07:55:16.354Z,16.90
2018-09-04T07:57:45.492Z,17.00
2018-09-04T08:00:14.549Z,17.10
2018-09-04T08:02:43.683Z,17.10
2018-09-04T08:05:12.770Z,17.30
2018-09-04T08:07:41.918Z,17.40
2018-09-04T08:10:11.054Z,17.40
2018-09-04T08:12:40.313Z,17.60
2018-09-04T08:15:09.529Z,17.70
2018-09-04T08:17:38.596Z,17.90
2018-09-04T08:20:07.692Z,18.00
2018-09-04T08:22:36.754Z,18.10
2018-09-04T08:25:05.904Z,18.00
2018-09-04T08:27:34.985Z,18.00
2018-09-04T08:30:04.194Z,18.10
2018-09-04T08:32:33.268Z,18.10
2018-09-04T08:35:02.395Z,18.10
2018-09-04T08:37:31.526Z,18.20
2018-09-04T08:40:00.662Z,18.40
2018-09-04T08:42:29.871Z,18.50
2018-09-04T08:44:58.958Z,18.60
2018-09-04T08:47:28.107Z,18.60
2018-09-04T08:49:57.734Z,18.70
2018-09-04T08:52:26.836Z,18.90
2018-09-04T08:54:56.126Z,19.10
2018-09-04T08:57:25.265Z,19.20
2018-09-04T08:59:54.385Z,19.20
2018-09-04T09:02:23.507Z,19.40
2018-09-04T09:04:52.641Z,19.40
2018-09-04T09:07:21.747Z,19.50
2018-09-04T09:09:50.962Z,19.70
2018-09-04T09:12:20.047Z,19.70
2018-09-04T09:14:49.151Z,19.80
2018-09-04T09:17:18.366Z,19.80
2018-09-04T09:19:47.455Z,19.90
2018-09-04T09:22:16.551Z,19.90
2018-09-04T09:24:45.638Z,20.00
2018-09-04T09:27:16.027Z,20.10
2018-09-04T09:29:45.247Z,20.30
2018-09-04T09:32:14.952Z,20.40
2018-09-04T09:34:44.197Z,20.40
2018-09-04T09:37:13.406Z,20.60
2018-09-04T09:39:42.500Z,20.70
2018-09-04T09:42:13.417Z,20.40
2018-09-04T09:44:44.858Z,20.50
2018-09-04T09:47:13.976Z,20.60
2018-09-04T09:49:43.155Z,20.90
2018-09-04T09:52:12.509Z,21.20
2018-09-04T09:54:41.617Z,21.50
2018-09-04T09:57:11.113Z,21.80
2018-09-04T09:59:40.411Z,21.90
2018-09-04T10:02:14.725Z,22.10
2018-09-04T10:04:43.847Z,22.20
2018-09-04T10:07:13.023Z,22.30
2018-09-04T10:09:42.938Z,22.30
2018-09-04T10:12:12.085Z,22.40
2018-09-04T10:14:41.202Z,22.50
2018-09-04T10:17:11.255Z,22.70
2018-09-04T10:19:40.337Z,22.70
2018-09-04T10:22:09.545Z,22.80
2018-09-04T10:24:38.687Z,22.70
2018-09-04T10:27:08.541Z,22.30
2018-09-04T10:29:37.687Z,22.30
2018-09-04T10:32:06.811Z,22.40
2018-09-04T10:34:35.999Z,22.50
2018-09-04T10:37:05.188Z,22.90
2018-09-04T10:39:39.515Z,23.40
2018-09-04T10:42:08.776Z,23.70
2018-09-04T10:44:38.052Z,24.00
2018-09-04T10:47:07.235Z,24.10
2018-09-04T10:49:36.372Z,24.00
2018-09-04T10:52:05.722Z,24.30
2018-09-04T10:54:35.029Z,24.00
2018-09-04T10:57:04.338Z,24.50
2018-09-04T10:59:33.573Z,24.80
2018-09-04T11:02:02.766Z,24.90
2018-09-04T11:04:32.007Z,25.00
2018-09-04T11:07:01.203Z,25.20
2018-09-04T11:09:30.544Z,25.50
2018-09-04T11:11:59.781Z,25.50
2018-09-04T11:14:28.909Z,25.60
2018-09-04T11:16:58.018Z,25.60
2018-09-04T11:19:27.377Z,25.80
2018-09-04T11:21:56.521Z,25.70
2018-09-04T11:24:25.601Z,25.50
2018-09-04T11:26:54.788Z,25.90
2018-09-04T11:29:24.134Z,25.80
2018-09-04T11:31:53.261Z,25.80
2018-09-04T11:34:22.516Z,25.80
2018-09-04T11:36:51.628Z,26.00
2018-09-04T11:39:20.708Z,26.40
2018-09-04T11:41:49.829Z,26.10
2018-09-04T11:44:19.019Z,25.70
2018-09-04T11:46:48.216Z,25.70
2018-09-04T11:49:17.319Z,25.70
2018-09-04T11:51:46.452Z,25.80
2018-09-04T11:54:16.282Z,26.30
2018-09-04T11:56:45.496Z,25.90
2018-09-04T11:59:14.790Z,25.30
2018-09-04T12:01:47.622Z,25.10
2018-09-04T12:04:17.567Z,25.70
2018-09-04T12:06:47.216Z,26.40
2018-09-04T12:09:16.299Z,27.00
2018-09-04T12:11:50.769Z,27.40
2018-09-04T12:14:19.955Z,27.50
2018-09-04T12:16:49.156Z,27.30
2018-09-04T12:19:18.337Z,27.30
2018-09-04T12:21:47.337Z,27.80
2018-09-04T12:24:16.536Z,27.60
2018-09-04T12:26:45.672Z,27.40
2018-09-04T12:29:14.725Z,26.80
2018-09-04T12:31:43.891Z,26.90
2018-09-04T12:34:14.042Z,26.80
2018-09-04T12:36:43.130Z,26.50
2018-09-04T12:39:12.226Z,26.10
2018-09-04T12:41:41.312Z,25.80
2018-09-04T12:44:10.413Z,25.80
2018-09-04T12:46:39.538Z,25.50
2018-09-04T12:49:08.756Z,25.30
2018-09-04T12:51:37.868Z,25.70
2018-09-04T12:54:07.126Z,26.40
2018-09-04T12:56:36.351Z,27.10
2018-09-04T12:59:05.874Z,27.20
2018-09-04T13:01:35.024Z,27.60
2018-09-04T13:04:04.299Z,28.10
2018-09-04T13:06:33.624Z,28.70
2018-09-04T13:09:02.893Z,28.80
2018-09-04T13:11:32.057Z,28.70
2018-09-04T13:14:01.202Z,28.50
2018-09-04T13:16:30.308Z,28.80
2018-09-04T13:18:59.604Z,29.20
2018-09-04T13:21:28.848Z,29.40
2018-09-04T13:23:58.060Z,29.60
2018-09-04T13:26:27.862Z,29.50
2018-09-04T13:28:56.936Z,29.80
2018-09-04T13:31:26.122Z,30.00
2018-09-04T13:33:55.219Z,29.80
2018-09-04T13:36:24.326Z,29.90
2018-09-04T13:38:53.394Z,30.00
2018-09-04T13:41:22.501Z,29.70
2018-09-04T13:43:51.626Z,29.80
2018-09-04T13:46:20.750Z,29.60
2018-09-04T13:48:49.834Z,29.80
2018-09-04T13:51:18.954Z,30.30
2018-09-04T13:53:48.094Z,30.50
2018-09-04T13:56:17.246Z,30.10
2018-09-04T13:58:46.362Z,30.10
2018-09-04T14:01:15.622Z,30.30
2018-09-04T14:03:44.700Z,30.10
2018-09-04T14:06:13.780Z,30.00
2018-09-04T14:08:42.873Z,29.80
2018-09-04T14:11:12.017Z,29.40
2018-09-04T14:13:41.058Z,29.30
2018-09-04T14:16:11.590Z,29.40
2018-09-04T14:18:40.688Z,29.70
2018-09-04T14:21:09.766Z,29.90
2018-09-04T14:23:38.921Z,30.20
2018-09-04T14:26:07.989Z,30.60
2018-09-04T14:28:44.029Z,30.90
2018-09-04T14:31:06.168Z,30.70
2018-09-04T14:33:35.265Z,30.80
2018-09-04T14:36:04.614Z,31.20
2018-09-04T14:38:33.672Z,31.20
2018-09-04T14:41:04.190Z,31.40
2018-09-04T14:43:35.806Z,31.40
2018-09-04T14:46:05.154Z,31.20
2018-09-04T14:48:34.378Z,31.00
2018-09-04T14:51:03.545Z,30.90
2018-09-04T14:53:32.684Z,30.70
2018-09-04T14:56:01.772Z,30.50
2018-09-04T14:58:30.851Z,30.70
2018-09-04T15:00:59.930Z,30.80
2018-09-04T15:03:29.304Z,30.90
2018-09-04T15:05:58.397Z,30.30
2018-09-04T15:08:27.459Z,30.40
2018-09-04T15:10:56.655Z,30.80
2018-09-04T15:13:25.758Z,30.40
2018-09-04T15:15:54.931Z,29.80
2018-09-04T15:18:23.987Z,29.50
2018-09-04T15:20:53.075Z,29.00
2018-09-04T15:23:22.227Z,28.80
2018-09-04T15:25:51.356Z,28.80
2018-09-04T15:28:20.458Z,29.10
2018-09-04T15:30:49.537Z,29.40
2018-09-04T15:33:18.642Z,29.40
2018-09-04T15:35:47.764Z,29.20
2018-09-04T15:38:16.911Z,29.70
2018-09-04T15:40:46.132Z,30.00
2018-09-04T15:43:15.341Z,29.90
2018-09-04T15:45:44.470Z,29.70
2018-09-04T15:48:13.550Z,29.60
2018-09-04T15:50:42.689Z,29.00
2018-09-04T15:53:11.928Z,29.10
2018-09-04T15:55:41.394Z,29.20
2018-09-04T15:58:10.635Z,29.20
2018-09-04T16:00:39.724Z,29.40
2018-09-04T16:03:08.822Z,29.50
2018-09-04T16:05:38.199Z,29.50
2018-09-04T16:08:07.419Z,29.70
2018-09-04T16:10:36.511Z,29.60
2018-09-04T16:13:05.648Z,29.70
2018-09-04T16:15:34.720Z,29.70
2018-09-04T16:18:03.806Z,29.90
2018-09-04T16:20:32.896Z,30.00
2018-09-04T16:23:01.996Z,30.00
2018-09-04T16:25:31.101Z,30.50
2018-09-04T16:28:00.169Z,30.70
2018-09-04T16:30:29.370Z,30.80
2018-09-04T16:32:58.444Z,30.50
2018-09-04T16:35:27.621Z,30.20
2018-09-04T16:37:56.684Z,30.10
2018-09-04T16:40:25.828Z,30.10
2018-09-04T16:42:54.905Z,30.40
2018-09-04T16:45:24.089Z,30.50
2018-09-04T16:47:53.177Z,30.50
2018-09-04T16:50:22.248Z,30.40
2018-09-04T16:52:51.394Z,30.50
2018-09-04T16:55:20.478Z,30.60
2018-09-04T16:57:49.572Z,30.70
2018-09-04T17:00:18.684Z,31.00
2018-09-04T17:02:47.860Z,31.20
2018-09-04T17:05:16.957Z,31.50
2018-09-04T17:07:46.325Z,31.60
2018-09-04T17:10:15.423Z,32.20
2018-09-04T17:12:44.708Z,32.30
2018-09-04T17:15:13.798Z,32.70
2018-09-04T17:17:42.936Z,32.80
2018-09-04T17:20:12.063Z,32.40
2018-09-04T17:22:41.183Z,32.10
2018-09-04T17:25:10.334Z,32.10
2018-09-04T17:27:39.409Z,31.80
2018-09-04T17:30:08.606Z,31.50
2018-09-04T17:32:37.805Z,30.90
2018-09-04T17:35:06.980Z,30.50
2018-09-04T17:37:36.042Z,29.90
2018-09-04T17:40:05.464Z,29.40
2018-09-04T17:42:34.802Z,28.50
2018-09-04T17:45:04.148Z,27.50
2018-09-04T17:47:33.299Z,26.60
2018-09-04T17:50:02.395Z,26.00
2018-09-04T17:52:31.492Z,25.30
2018-09-04T17:55:00.562Z,24.70
2018-09-04T17:57:29.628Z,24.00
2018-09-04T17:59:58.712Z,23.90
2018-09-04T18:02:27.793Z,23.70
2018-09-04T18:04:56.931Z,23.30
2018-09-04T18:07:26.042Z,23.00
2018-09-04T18:09:55.439Z,22.90
2018-09-04T18:12:24.608Z,22.70
2018-09-04T18:14:53.798Z,22.60
2018-09-04T18:17:23.096Z,22.60
2018-09-04T18:19:52.292Z,22.30
2018-09-04T18:22:21.425Z,22.10
2018-09-04T18:24:50.580Z,21.90
2018-09-04T18:27:19.913Z,21.70
2018-09-04T18:29:49.013Z,21.70
2018-09-04T18:32:18.372Z,21.60
2018-09-04T18:34:47.436Z,21.60
2018-09-04T18:37:16.544Z,21.50
2018-09-04T18:39:45.681Z,21.30
2018-09-04T18:42:14.961Z,21.30
2018-09-04T18:44:44.090Z,21.20
2018-09-04T18:47:13.170Z,21.10
2018-09-04T18:49:42.249Z,21.00
2018-09-04T18:52:11.364Z,20.80
2018-09-04T18:54:40.493Z,20.70
2018-09-04T18:57:09.680Z,20.70
2018-09-04T18:59:38.926Z,20.50
2018-09-04T19:02:08.089Z,20.10
2018-09-04T19:04:37.294Z,20.20
2018-09-04T19:07:06.503Z,20.10
2018-09-04T19:09:35.569Z,20.00
2018-09-04T19:12:05.013Z,20.00
2018-09-04T19:14:34.159Z,20.00
2018-09-04T19:17:03.360Z,20.00
2018-09-04T19:19:32.519Z,19.90
2018-09-04T19:22:01.694Z,19.80
2018-09-04T19:24:30.873Z,19.70
2018-09-04T19:26:59.998Z,19.60
2018-09-04T19:29:29.045Z,19.60
2018-09-04T19:31:58.716Z,19.40
2018-09-04T19:34:27.832Z,19.40
2018-09-04T19:36:57.014Z,19.30
2018-09-04T19:39:26.362Z,19.20
2018-09-04T19:41:55.528Z,19.20
2018-09-04T19:44:24.591Z,19.10
2018-09-04T19:46:53.711Z,18.90
2018-09-04T19:49:23.007Z,18.90
2018-09-04T19:51:52.122Z,18.90
2018-09-04T19:54:21.246Z,18.80
2018-09-04T19:56:50.412Z,18.80
2018-09-04T19:59:19.572Z,18.70
2018-09-04T20:01:48.778Z,18.70
2018-09-04T20:04:17.877Z,18.70
2018-09-04T20:06:47.040Z,18.70
2018-09-04T20:09:16.211Z,18.60
2018-09-04T20:11:45.296Z,18.60
2018-09-04T20:14:14.877Z,18.60
2018-09-04T20:16:43.953Z,18.50
2018-09-04T20:19:13.179Z,18.40
2018-09-04T20:21:42.321Z,18.40
2018-09-04T20:24:11.395Z,18.40
2018-09-04T20:26:40.477Z,18.40
2018-09-04T20:29:09.588Z,18.50
2018-09-04T20:31:38.889Z,18.40
2018-09-04T20:34:08.046Z,18.50
2018-09-04T20:36:37.152Z,18.50
2018-09-04T20:39:06.718Z,18.30
2018-09-04T20:41:36.812Z,18.30
2018-09-04T20:44:06.020Z,18.10
2018-09-04T20:46:35.642Z,18.10
2018-09-04T20:49:04.908Z,18.00
2018-09-04T20:51:34.126Z,17.90
2018-09-04T20:54:03.329Z,17.80
2018-09-04T20:56:32.550Z,17.80
2018-09-04T20:59:12.766Z,17.60
2018-09-04T21:01:53.107Z,17.50
2018-09-04T21:04:33.391Z,17.50
2018-09-04T21:07:01.300Z,17.30
2018-09-04T21:09:41.563Z,17.30
2018-09-04T21:12:10.706Z,17.30
2018-09-04T21:14:39.928Z,17.30
2018-09-04T21:17:09.071Z,17.20
2018-09-04T21:19:38.199Z,17.30
2018-09-04T21:22:07.354Z,17.30
2018-09-04T21:24:36.556Z,17.30
2018-09-04T21:27:05.788Z,17.30
2018-09-04T21:29:34.975Z,17.30
2018-09-04T21:32:04.051Z,17.30
2018-09-04T21:34:33.358Z,17.20
2018-09-04T21:37:02.650Z,17.30
2018-09-04T21:39:31.842Z,17.10
2018-09-04T21:42:01.031Z,17.10
2018-09-04T21:44:30.934Z,17.10
2018-09-04T21:47:00.180Z,17.00
2018-09-04T21:49:29.384Z,17.10
2018-09-04T21:51:58.470Z,17.10
2018-09-04T21:54:27.560Z,17.00
2018-09-04T21:56:56.652Z,16.90
2018-09-04T21:59:25.870Z,16.90
2018-09-04T22:01:55.127Z,16.80
2018-09-04T22:04:24.352Z,16.80
2018-09-04T22:06:53.564Z,16.80
2018-09-04T22:09:23.565Z,16.70
2018-09-04T22:11:52.694Z,16.70
2018-09-04T22:14:21.894Z,16.70
2018-09-04T22:16:52.040Z,16.60
2018-09-04T22:19:21.120Z,16.70
2018-09-04T22:21:50.300Z,16.70
2018-09-04T22:24:19.423Z,16.60
2018-09-04T22:26:48.510Z,16.50
2018-09-04T22:29:17.622Z,16.30
2018-09-04T22:31:46.682Z,16.30
2018-09-04T22:34:15.827Z,16.30
2018-09-04T22:36:44.929Z,16.30
2018-09-04T22:39:14.181Z,16.30
2018-09-04T22:41:43.365Z,16.20
2018-09-04T22:44:12.469Z,16.30
2018-09-04T22:46:41.554Z,16.30
2018-09-04T22:49:10.617Z,16.20
2018-09-04T22:51:39.707Z,16.20
2018-09-04T22:54:08.838Z,16.20
2018-09-04T22:56:38.571Z,16.10
2018-09-04T22:59:08.064Z,16.00
2018-09-04T23:01:37.145Z,16.10
2018-09-04T23:04:06.338Z,16.10
2018-09-04T23:06:35.429Z,16.10
2018-09-04T23:09:05.981Z,15.90
2018-09-04T23:11:35.057Z,15.90
2018-09-04T23:14:04.185Z,15.80
2018-09-04T23:16:33.314Z,15.90
2018-09-04T23:19:02.424Z,15.90
2018-09-04T23:21:31.499Z,15.80
2018-09-04T23:24:00.650Z,15.70
2018-09-04T23:26:29.766Z,15.80
2018-09-04T23:28:58.870Z,15.80
2018-09-04T23:31:27.948Z,15.80
2018-09-04T23:33:57.004Z,15.80
2018-09-04T23:36:26.096Z,15.90
2018-09-04T23:38:55.192Z,15.90
2018-09-04T23:41:24.383Z,15.80
2018-09-04T23:43:53.483Z,15.80
2018-09-04T23:46:22.583Z,15.90
2018-09-04T23:48:51.797Z,15.90
2018-09-04T23:51:20.897Z,15.80
2018-09-04T23:53:49.985Z,15.70
2018-09-04T23:56:19.099Z,15.70
2018-09-04T23:58:48.204Z,15.70
